sensor_id;sensor_type;location;lat;lon;timestamp;P1;durP1;ratioP1;P2;durP2;ratioP2
84788;SDS011;75022;50.788;20.620;2024-03-25T00:00:21;40.52;;;32.58;;
84788;SDS011;75022;50.788;20.620;2024-03-25T00:10:15;38.900000000000006;;;31.540000000000003;;
84788;SDS011;75022;50.788;20.620;2024-03-25T00:20:10;36.45;;;29.37;;
84788;SDS011;75022;50.788;20.620;2024-03-25T00:30:10;33.82;;;27.33;;
84788;SDS011;75022;50.788;20.620;2024-03-25T00:40:06;33.99;;;27.76;;
84788;SDS011;75022;50.788;20.620;2024-03-25T00:50:15;34.82;;;27.9;;
84788;SDS011;75022;50.788;20.620;2024-03-25T01:00:03;36.36;;;29.22;;
84788;SDS011;75022;50.788;20.620;2024-03-25T01:10:10;36.88;;;29.45;;
84788;SDS011;75022;50.788;20.620;2024-03-25T01:20:07;36.65;;;29.450000000000003;;
84788;SDS011;75022;50.788;20.620;2024-03-25T01:30:11;36.7;;;29.35;;
84788;SDS011;75022;50.788;20.620;2024-03-25T01:40:17;35.65;;;28.75;;
84788;SDS011;75022;50.788;20.620;2024-03-25T01:50:07;34.25;;;27.69;;
84788;SDS011;75022;50.788;20.620;2024-03-25T02:00:17;33.08;;;27.06;;
84788;SDS011;75022;50.788;20.620;2024-03-25T02:10:18;32.459999999999994;;;26.53;;
84788;SDS011;75022;50.788;20.620;2024-03-25T02:20:18;31.92;;;26.080000000000002;;
84788;SDS011;75022;50.788;20.620;2024-03-25T02:30:10;31.45;;;25.96;;
84788;SDS011;75022;50.788;20.620;2024-03-25T02:40:15;31.25;;;25.650000000000002;;
84788;SDS011;75022;50.788;20.620;2024-03-25T02:50:06;30.68;;;25.380000000000003;;
84788;SDS011;75022;50.788;20.620;2024-03-25T03:00:15;30.12;;;25.05;;
84788;SDS011;75022;50.788;20.620;2024-03-25T03:10:11;30.23;;;24.950000000000003;;
84788;SDS011;75022;50.788;20.620;2024-03-25T03:20:04;29.71;;;24.66;;
84788;SDS011;75022;50.788;20.620;2024-03-25T03:30:17;29.16;;;24.37;;
84788;SDS011;75022;50.788;20.620;2024-03-25T03:40:21;28.31;;;23.78;;
84788;SDS011;75022;50.788;20.620;2024-03-25T03:50:10;27.36;;;23.07;;
84788;SDS011;75022;50.788;20.620;2024-03-25T04:00:09;26.91;;;22.57;;
84788;SDS011;75022;50.788;20.620;2024-03-25T04:10:12;27.599999999999998;;;23.27;;
84788;SDS011;75022;50.788;20.620;2024-03-25T04:20:15;27.150000000000002;;;23.0;;
84788;SDS011;75022;50.788;20.620;2024-03-25T04:30:14;27.0;;;23.01;;
84788;SDS011;75022;50.788;20.620;2024-03-25T04:40:04;26.900000000000002;;;22.799999999999997;;
84788;SDS011;75022;50.788;20.620;2024-03-25T04:50:03;26.36;;;22.549999999999997;;
84788;SDS011;75022;50.788;20.620;2024-03-25T05:00:02;25.39;;;22.19;;
84788;SDS011;75022;50.788;20.620;2024-03-25T05:10:05;23.93;;;20.990000000000002;;
84788;SDS011;75022;50.788;20.620;2024-03-25T05:20:16;24.74;;;21.54;;
84788;SDS011;75022;50.788;20.620;2024-03-25T05:30:15;25.27;;;21.8;;
84788;SDS011;75022;50.788;20.620;2024-03-25T05:40:07;26.580000000000002;;;22.66;;
84788;SDS011;75022;50.788;20.620;2024-03-25T05:50:11;26.62;;;22.59;;
84788;SDS011;75022;50.788;20.620;2024-03-25T06:00:04;26.93;;;22.74;;
84788;SDS011;75022;50.788;20.620;2024-03-25T06:10:13;26.77;;;22.56;;
84788;SDS011;75022;50.788;20.620;2024-03-25T06:20:14;25.7;;;21.88;;
84788;SDS011;75022;50.788;20.620;2024-03-25T06:30:02;23.95;;;20.7;;
84788;SDS011;75022;50.788;20.620;2024-03-25T06:40:05;20.869999999999997;;;18.6;;
84788;SDS011;75022;50.788;20.620;2024-03-25T06:50:10;18.99;;;17.150000000000002;;
84788;SDS011;75022;50.788;20.620;2024-03-25T07:00:13;16.75;;;15.340000000000002;;
84788;SDS011;75022;50.788;20.620;2024-03-25T07:10:06;14.41;;;13.41;;
84788;SDS011;75022;50.788;20.620;2024-03-25T07:20:14;12.600000000000001;;;11.85;;
84788;SDS011;75022;50.788;20.620;2024-03-25T07:30:03;11.799999999999999;;;11.09;;
84788;SDS011;75022;50.788;20.620;2024-03-25T07:40:02;12.3;;;11.6;;
84788;SDS011;75022;50.788;20.620;2024-03-25T07:50:04;12.66;;;11.91;;
84788;SDS011;75022;50.788;20.620;2024-03-25T08:00:06;13.270000000000001;;;12.44;;
84788;SDS011;75022;50.788;20.620;2024-03-25T08:10:14;13.899999999999999;;;13.24;;
84788;SDS011;75022;50.788;20.620;2024-03-25T08:20:03;14.23;;;13.5;;
84788;SDS011;75022;50.788;20.620;2024-03-25T08:30:10;14.73;;;13.819999999999999;;
84788;SDS011;75022;50.788;20.620;2024-03-25T08:40:11;14.14;;;13.33;;
84788;SDS011;75022;50.788;20.620;2024-03-25T08:50:13;13.360000000000001;;;12.6;;
84788;SDS011;75022;50.788;20.620;2024-03-25T09:00:21;13.12;;;12.33;;
84788;SDS011;75022;50.788;20.620;2024-03-25T09:10:02;12.01;;;11.33;;
84788;SDS011;75022;50.788;20.620;2024-03-25T09:20:17;11.29;;;10.67;;
84788;SDS011;75022;50.788;20.620;2024-03-25T09:30:20;9.19;;;8.780000000000001;;
84788;SDS011;75022;50.788;20.620;2024-03-25T09:40:13;7.9399999999999995;;;7.6000000000000005;;
84788;SDS011;75022;50.788;20.620;2024-03-25T09:50:17;7.46;;;7.13;;
84788;SDS011;75022;50.788;20.620;2024-03-25T10:00:15;7.0200000000000005;;;6.74;;
84788;SDS011;75022;50.788;20.620;2024-03-25T10:10:20;7.48;;;7.15;;
84788;SDS011;75022;50.788;20.620;2024-03-25T10:20:15;7.96;;;7.640000000000001;;
84788;SDS011;75022;50.788;20.620;2024-03-25T10:30:23;9.139999999999999;;;8.78;;
84788;SDS011;75022;50.788;20.620;2024-03-25T10:40:15;10.47;;;10.05;;
84788;SDS011;75022;50.788;20.620;2024-03-25T10:50:19;10.75;;;10.26;;
84788;SDS011;75022;50.788;20.620;2024-03-25T11:00:25;10.739999999999998;;;10.29;;
84788;SDS011;75022;50.788;20.620;2024-03-25T11:10:13;10.6;;;10.049999999999999;;
84788;SDS011;75022;50.788;20.620;2024-03-25T11:20:23;10.5;;;9.979999999999999;;
84788;SDS011;75022;50.788;20.620;2024-03-25T11:30:14;9.46;;;8.89;;
84788;SDS011;75022;50.788;20.620;2024-03-25T11:40:08;7.64;;;7.17;;
84788;SDS011;75022;50.788;20.620;2024-03-25T11:50:22;7.07;;;6.56;;
84788;SDS011;75022;50.788;20.620;2024-03-25T12:00:19;6.63;;;6.17;;
84788;SDS011;75022;50.788;20.620;2024-03-25T12:20:16;5.83;;;5.42;;
84788;SDS011;75022;50.788;20.620;2024-03-25T12:30:21;7.13;;;6.59;;
84788;SDS011;75022;50.788;20.620;2024-03-25T12:40:12;9.02;;;8.16;;
84788;SDS011;75022;50.788;20.620;2024-03-25T12:50:14;8.98;;;8.03;;
84788;SDS011;75022;50.788;20.620;2024-03-25T13:00:03;8.1;;;7.26;;
84788;SDS011;75022;50.788;20.620;2024-03-25T13:10:03;7.28;;;6.430000000000001;;
84788;SDS011;75022;50.788;20.620;2024-03-25T13:20:10;6.319999999999999;;;5.529999999999999;;
84788;SDS011;75022;50.788;20.620;2024-03-25T13:30:06;4.59;;;3.88;;
84788;SDS011;75022;50.788;20.620;2024-03-25T13:40:10;2.8499999999999996;;;2.5;;
84788;SDS011;75022;50.788;20.620;2024-03-25T13:50:03;3.67;;;3.3099999999999996;;
84788;SDS011;75022;50.788;20.620;2024-03-25T14:00:02;4.88;;;4.38;;
84788;SDS011;75022;50.788;20.620;2024-03-25T14:10:15;5.9399999999999995;;;5.32;;
84788;SDS011;75022;50.788;20.620;2024-03-25T14:20:12;7.68;;;6.83;;
84788;SDS011;75022;50.788;20.620;2024-03-25T14:30:02;9.39;;;8.35;;
84788;SDS011;75022;50.788;20.620;2024-03-25T14:40:02;10.55;;;9.37;;
84788;SDS011;75022;50.788;20.620;2024-03-25T14:50:13;10.57;;;9.5;;
84788;SDS011;75022;50.788;20.620;2024-03-25T15:00:13;10.32;;;9.29;;
84788;SDS011;75022;50.788;20.620;2024-03-25T15:10:17;9.19;;;8.37;;
84788;SDS011;75022;50.788;20.620;2024-03-25T15:20:07;8.370000000000001;;;7.58;;
84788;SDS011;75022;50.788;20.620;2024-03-25T15:30:16;8.89;;;7.96;;
84788;SDS011;75022;50.788;20.620;2024-03-25T15:40:02;8.32;;;7.45;;
84788;SDS011;75022;50.788;20.620;2024-03-25T15:50:05;7.720000000000001;;;6.91;;
84788;SDS011;75022;50.788;20.620;2024-03-25T16:00:12;7.92;;;7.079999999999999;;
84788;SDS011;75022;50.788;20.620;2024-03-25T16:10:05;8.91;;;8.01;;
84788;SDS011;75022;50.788;20.620;2024-03-25T16:20:13;9.99;;;8.97;;
84788;SDS011;75022;50.788;20.620;2024-03-25T16:30:09;10.18;;;9.11;;
84788;SDS011;75022;50.788;20.620;2024-03-25T16:40:09;11.56;;;10.06;;
84788;SDS011;75022;50.788;20.620;2024-03-25T16:50:14;13.98;;;11.84;;
84788;SDS011;75022;50.788;20.620;2024-03-25T17:00:19;17.799999999999997;;;14.47;;
84788;SDS011;75022;50.788;20.620;2024-03-25T17:10:12;23.0;;;17.71;;
84788;SDS011;75022;50.788;20.620;2024-03-25T17:20:16;25.919999999999998;;;19.46;;
84788;SDS011;75022;50.788;20.620;2024-03-25T17:30:18;30.8;;;22.77;;
84788;SDS011;75022;50.788;20.620;2024-03-25T17:40:02;36.989999999999995;;;27.02;;
84788;SDS011;75022;50.788;20.620;2024-03-25T17:50:23;38.34;;;27.71;;
84788;SDS011;75022;50.788;20.620;2024-03-25T18:00:14;36.440000000000005;;;26.599999999999998;;
84788;SDS011;75022;50.788;20.620;2024-03-25T18:30:11;28.68;;;22.060000000000002;;
84788;SDS011;75022;50.788;20.620;2024-03-25T18:40:19;23.13;;;18.4;;
84788;SDS011;75022;50.788;20.620;2024-03-25T18:50:04;22.9;;;18.13;;
84788;SDS011;75022;50.788;20.620;2024-03-25T19:00:23;29.26;;;22.52;;
84788;SDS011;75022;50.788;20.620;2024-03-25T19:10:08;36.410000000000004;;;27.650000000000002;;
84788;SDS011;75022;50.788;20.620;2024-03-25T19:30:09;42.94;;;31.310000000000002;;
84788;SDS011;75022;50.788;20.620;2024-03-25T19:40:14;45.5;;;32.88;;
84788;SDS011;75022;50.788;20.620;2024-03-25T19:50:04;46.910000000000004;;;33.62;;
84788;SDS011;75022;50.788;20.620;2024-03-25T20:00:05;43.300000000000004;;;30.959999999999997;;
84788;SDS011;75022;50.788;20.620;2024-03-25T20:10:06;39.23;;;27.6;;
84788;SDS011;75022;50.788;20.620;2024-03-25T20:30:11;32.47;;;23.880000000000003;;
84788;SDS011;75022;50.788;20.620;2024-03-25T20:40:12;32.07;;;23.68;;
84788;SDS011;75022;50.788;20.620;2024-03-25T21:00:02;35.73;;;25.94;;
84788;SDS011;75022;50.788;20.620;2024-03-25T21:10:14;39.54;;;28.4;;
84788;SDS011;75022;50.788;20.620;2024-03-25T21:20:19;47.06;;;34.49;;
84788;SDS011;75022;50.788;20.620;2024-03-25T21:30:13;54.54;;;40.24;;
84788;SDS011;75022;50.788;20.620;2024-03-25T21:50:12;76.97;;;58.400000000000006;;
84788;SDS011;75022;50.788;20.620;2024-03-25T22:00:14;100.35000000000001;;;76.58;;
84788;SDS011;75022;50.788;20.620;2024-03-25T22:20:14;110.17;;;83.21000000000001;;
84788;SDS011;75022;50.788;20.620;2024-03-25T22:30:07;107.3;;;79.7;;
84788;SDS011;75022;50.788;20.620;2024-03-25T22:40:19;102.59;;;75.97;;
84788;SDS011;75022;50.788;20.620;2024-03-25T22:50:12;88.85;;;65.21;;
84788;SDS011;75022;50.788;20.620;2024-03-25T23:00:23;67.91;;;48.050000000000004;;
84788;SDS011;75022;50.788;20.620;2024-03-25T23:10:13;54.25;;;37.49;;
84788;SDS011;75022;50.788;20.620;2024-03-25T23:20:16;55.03;;;37.68;;
84788;SDS011;75022;50.788;20.620;2024-03-25T23:40:07;57.989999999999995;;;39.660000000000004;;
84788;SDS011;75022;50.788;20.620;2024-03-25T23:50:11;58.230000000000004;;;40.11;;
